createdAt,value
2018-11-25T00:00:43.642Z,87.00
2018-11-25T00:03:11.398Z,87.25
2018-11-25T00:05:39.257Z,87.44
2018-11-25T00:08:06.966Z,87.62
2018-11-25T00:10:34.680Z,87.68
2018-11-25T00:13:02.397Z,87.60
2018-11-25T00:15:30.102Z,87.10
2018-11-25T00:17:57.814Z,86.89
2018-11-25T00:20:25.602Z,86.91
2018-11-25T00:22:56.240Z,87.08
2018-11-25T00:25:24.130Z,86.74
2018-11-25T00:27:51.894Z,87.53
2018-11-25T00:30:19.625Z,87.21
2018-11-25T00:32:47.371Z,87.02
2018-11-25T00:35:15.915Z,87.23
2018-11-25T00:37:48.301Z,87.06
2018-11-25T00:40:13.853Z,87.60
2018-11-25T00:42:42.186Z,87.86
2018-11-25T00:45:12.945Z,87.95
2018-11-25T00:47:40.842Z,88.58
2018-11-25T00:50:11.441Z,88.87
2018-11-25T00:52:39.145Z,88.77
2018-11-25T00:55:09.399Z,88.51
2018-11-25T00:57:37.105Z,88.37
2018-11-25T01:00:08.938Z,88.91
2018-11-25T01:02:36.691Z,88.19
2018-11-25T01:05:04.512Z,87.64
2018-11-25T01:07:32.297Z,88.14
2018-11-25T01:10:00.085Z,88.58
2018-11-25T01:12:27.754Z,89.19
2018-11-25T01:14:55.427Z,90.17
2018-11-25T01:17:23.093Z,89.50
2018-11-25T01:19:50.817Z,89.34
2018-11-25T01:22:18.555Z,88.61
2018-11-25T01:24:46.286Z,88.90
2018-11-25T01:27:14.203Z,88.59
2018-11-25T01:29:42.077Z,88.27
2018-11-25T01:32:09.855Z,87.58
2018-11-25T01:34:37.537Z,87.60
2018-11-25T01:37:05.737Z,87.93
2018-11-25T01:39:33.456Z,87.51
2018-11-25T01:42:01.134Z,87.55
2018-11-25T01:44:28.973Z,87.16
2018-11-25T01:46:56.654Z,87.56
2018-11-25T01:49:24.463Z,87.85
2018-11-25T01:51:52.417Z,87.59
2018-11-25T01:54:20.075Z,87.13
2018-11-25T01:56:47.833Z,87.55
2018-11-25T01:59:15.518Z,87.64
2018-11-25T02:01:43.291Z,87.66
2018-11-25T02:04:11.004Z,87.62
2018-11-25T02:06:38.695Z,87.96
2018-11-25T02:09:07.974Z,87.87
2018-11-25T02:11:36.021Z,87.41
2018-11-25T02:14:04.054Z,87.50
2018-11-25T02:19:29.142Z,87.57
2018-11-25T02:21:56.852Z,88.03
2018-11-25T02:24:24.541Z,87.34
2018-11-25T02:26:52.405Z,87.25
2018-11-25T02:29:20.122Z,87.43
2018-11-25T02:31:47.835Z,87.43
2018-11-25T02:34:15.510Z,87.10
2018-11-25T02:36:43.305Z,87.25
2018-11-25T02:39:10.971Z,86.87
2018-11-25T02:41:38.665Z,87.27
2018-11-25T02:44:06.352Z,87.30
2018-11-25T02:46:34.078Z,87.46
2018-11-25T02:49:01.808Z,87.28
2018-11-25T02:51:29.540Z,87.69
2018-11-25T02:53:57.309Z,87.05
2018-11-25T02:56:25.066Z,87.34
2018-11-25T02:58:52.769Z,87.69
2018-11-25T03:01:20.431Z,87.78
2018-11-25T03:03:48.163Z,87.72
2018-11-25T03:06:15.867Z,87.44
2018-11-25T03:08:43.573Z,86.73
2018-11-25T03:11:11.293Z,87.30
2018-11-25T03:13:39.062Z,87.89
2018-11-25T03:16:06.796Z,87.92
2018-11-25T03:18:34.596Z,87.41
2018-11-25T03:21:02.267Z,87.15
2018-11-25T03:23:29.962Z,87.27
2018-11-25T03:25:57.707Z,87.02
2018-11-25T03:28:25.401Z,87.61
2018-11-25T03:30:53.105Z,87.51
2018-11-25T03:33:20.761Z,87.48
2018-11-25T03:35:48.485Z,87.62
2018-11-25T03:38:16.134Z,87.70
2018-11-25T03:40:43.895Z,88.28
2018-11-25T03:43:11.598Z,88.52
2018-11-25T03:45:39.301Z,88.39
2018-11-25T03:48:07.137Z,88.34
2018-11-25T03:50:34.847Z,87.89
2018-11-25T03:53:02.558Z,88.14
2018-11-25T03:55:30.286Z,87.86
2018-11-25T03:57:58.014Z,88.41
2018-11-25T04:00:25.726Z,87.54
2018-11-25T04:02:54.074Z,87.77
2018-11-25T04:05:21.757Z,88.16
2018-11-25T04:07:49.574Z,87.55
2018-11-25T04:10:18.544Z,87.58
2018-11-25T04:12:46.278Z,87.63
2018-11-25T04:15:15.369Z,87.46
2018-11-25T04:17:46.663Z,88.35
2018-11-25T04:20:15.798Z,89.25
2018-11-25T04:22:43.530Z,89.56
2018-11-25T04:25:11.994Z,89.78
2018-11-25T04:27:39.772Z,89.20
2018-11-25T04:30:13.134Z,89.48
2018-11-25T04:32:40.955Z,88.86
2018-11-25T04:35:10.150Z,88.37
2018-11-25T04:37:37.981Z,88.39
2018-11-25T04:40:08.097Z,88.67
2018-11-25T04:42:35.802Z,88.93
2018-11-25T04:45:03.759Z,88.95
2018-11-25T04:47:31.515Z,88.67
2018-11-25T04:49:59.217Z,89.05
2018-11-25T04:52:26.962Z,88.90
2018-11-25T04:54:54.673Z,88.92
2018-11-25T04:57:22.367Z,88.69
2018-11-25T04:59:50.029Z,88.74
2018-11-25T05:02:17.639Z,88.87
2018-11-25T05:04:45.294Z,88.62
2018-11-25T05:07:12.994Z,88.85
2018-11-25T05:09:40.647Z,89.06
2018-11-25T05:12:08.363Z,88.71
2018-11-25T05:14:36.066Z,88.88
2018-11-25T05:17:03.810Z,89.16
2018-11-25T05:19:31.501Z,88.60
2018-11-25T05:21:59.157Z,88.94
2018-11-25T05:24:26.870Z,89.39
2018-11-25T05:26:54.630Z,89.32
2018-11-25T05:29:22.350Z,89.34
2018-11-25T05:31:49.994Z,90.01
2018-11-25T05:34:17.704Z,90.07
2018-11-25T05:36:45.501Z,89.32
2018-11-25T05:39:13.216Z,89.38
2018-11-25T05:41:40.894Z,88.97
2018-11-25T05:44:08.576Z,88.42
2018-11-25T05:46:36.277Z,88.36
2018-11-25T05:49:04.002Z,87.92
2018-11-25T05:51:31.666Z,88.70
2018-11-25T05:53:59.338Z,89.20
2018-11-25T05:56:26.989Z,88.91
2018-11-25T05:58:54.653Z,88.63
2018-11-25T06:01:22.356Z,88.89
2018-11-25T06:03:50.069Z,88.87
2018-11-25T06:06:17.791Z,90.19
2018-11-25T06:08:45.441Z,90.10
2018-11-25T06:11:13.110Z,90.04
2018-11-25T06:13:40.752Z,89.85
2018-11-25T06:16:08.414Z,89.73
2018-11-25T06:18:36.093Z,89.50
2018-11-25T06:21:04.113Z,89.52
2018-11-25T06:23:31.838Z,89.22
2018-11-25T06:25:59.483Z,89.24
2018-11-25T06:28:27.307Z,89.04
2018-11-25T06:30:55.026Z,89.10
2018-11-25T06:33:22.732Z,89.42
2018-11-25T06:35:50.427Z,89.26
2018-11-25T06:38:18.198Z,89.08
2018-11-25T06:40:45.888Z,88.79
2018-11-25T06:43:13.594Z,88.78
2018-11-25T06:45:41.302Z,88.37
2018-11-25T06:48:09.032Z,88.19
2018-11-25T06:50:36.687Z,88.82
2018-11-25T06:53:04.495Z,89.44
2018-11-25T06:55:32.224Z,89.69
2018-11-25T06:57:59.950Z,89.12
2018-11-25T07:00:27.670Z,89.01
2018-11-25T07:02:56.134Z,88.51
2018-11-25T07:05:23.820Z,89.05
2018-11-25T07:07:54.558Z,89.17
2018-11-25T07:10:22.777Z,88.73
2018-11-25T07:12:52.062Z,89.24
2018-11-25T07:15:19.748Z,89.08
2018-11-25T07:17:47.582Z,89.13
2018-11-25T07:20:18.150Z,89.05
2018-11-25T07:22:45.838Z,89.54
2018-11-25T07:25:18.950Z,89.40
2018-11-25T07:27:46.706Z,89.82
2018-11-25T07:30:16.390Z,89.59
2018-11-25T07:32:44.103Z,89.68
2018-11-25T07:35:11.739Z,89.48
2018-11-25T07:37:39.438Z,88.73
2018-11-25T07:40:13.141Z,89.37
2018-11-25T07:42:40.861Z,89.04
2018-11-25T07:45:12.286Z,88.85
2018-11-25T07:47:40.014Z,89.88
2018-11-25T07:50:09.602Z,89.33
2018-11-25T07:52:37.460Z,89.48
2018-11-25T07:55:08.770Z,89.35
2018-11-25T07:57:36.454Z,89.03
2018-11-25T08:00:10.450Z,88.97
2018-11-25T08:02:41.599Z,89.23
2018-11-25T08:05:11.128Z,89.53
2018-11-25T08:07:38.853Z,89.81
2018-11-25T08:10:09.670Z,89.35
2018-11-25T08:12:37.486Z,89.91
2018-11-25T08:15:09.856Z,90.01
2018-11-25T08:17:38.102Z,90.00
2018-11-25T08:20:08.781Z,90.05
2018-11-25T08:22:37.293Z,89.97
2018-11-25T08:25:08.466Z,90.19
2018-11-25T08:27:36.246Z,90.18
2018-11-25T08:30:08.951Z,90.64
2018-11-25T08:32:36.789Z,90.29
2018-11-25T08:35:05.676Z,91.00
2018-11-25T08:37:33.402Z,90.93
2018-11-25T08:40:01.106Z,90.80
2018-11-25T08:42:29.110Z,91.71
2018-11-25T08:44:56.815Z,90.10
2018-11-25T08:47:24.503Z,90.21
2018-11-25T08:49:52.337Z,89.24
2018-11-25T08:52:20.230Z,89.57
2018-11-25T08:54:48.202Z,90.48
2018-11-25T08:57:17.457Z,89.42
2018-11-25T08:59:45.386Z,89.12
2018-11-25T09:02:13.278Z,89.96
2018-11-25T09:04:41.147Z,88.67
2018-11-25T09:07:08.858Z,87.66
2018-11-25T09:09:36.674Z,87.97
2018-11-25T09:12:04.552Z,87.63
2018-11-25T09:14:32.336Z,87.62
2018-11-25T09:17:03.890Z,88.15
2018-11-25T09:19:31.707Z,88.11
2018-11-25T09:21:59.930Z,88.12
2018-11-25T09:24:27.179Z,88.34
2018-11-25T09:26:54.895Z,87.54
2018-11-25T09:29:22.639Z,88.80
2018-11-25T09:31:50.330Z,89.35
2018-11-25T09:34:18.006Z,88.88
2018-11-25T09:36:45.742Z,88.69
2018-11-25T09:39:13.514Z,88.90
2018-11-25T09:41:41.219Z,88.99
2018-11-25T09:44:09.014Z,89.28
2018-11-25T09:46:42.580Z,89.46
2018-11-25T09:49:05.198Z,89.07
2018-11-25T09:51:32.954Z,88.12
2018-11-25T09:54:00.698Z,88.29
2018-11-25T09:56:28.460Z,87.72
2018-11-25T09:58:56.328Z,87.97
2018-11-25T10:01:24.000Z,88.34
2018-11-25T10:03:51.760Z,88.44
2018-11-25T10:06:19.553Z,88.25
2018-11-25T10:08:47.260Z,87.81
2018-11-25T10:11:15.115Z,88.23
2018-11-25T10:13:42.862Z,88.45
2018-11-25T10:16:10.652Z,87.99
2018-11-25T10:18:38.418Z,88.32
2018-11-25T10:21:06.142Z,88.20
2018-11-25T10:23:33.887Z,87.81
2018-11-25T10:26:01.578Z,87.98
2018-11-25T10:28:29.298Z,88.01
2018-11-25T10:30:56.982Z,88.37
2018-11-25T10:33:24.674Z,88.21
2018-11-25T10:35:52.390Z,88.48
2018-11-25T10:38:20.122Z,88.27
2018-11-25T10:40:47.802Z,88.09
2018-11-25T10:43:15.612Z,88.53
2018-11-25T10:45:43.409Z,88.34
2018-11-25T10:48:11.126Z,88.28
2018-11-25T10:50:38.766Z,88.54
2018-11-25T10:53:06.528Z,88.41
2018-11-25T10:55:34.673Z,88.42
2018-11-25T10:58:02.358Z,88.76
2018-11-25T11:00:37.619Z,88.25
2018-11-25T11:03:13.618Z,87.63
2018-11-25T11:05:47.169Z,88.14
2018-11-25T11:08:14.989Z,88.57
2018-11-25T11:10:42.726Z,88.15
2018-11-25T11:13:10.484Z,88.10
2018-11-25T11:15:38.133Z,88.15
2018-11-25T11:18:06.725Z,88.57
2018-11-25T11:20:34.439Z,88.29
2018-11-25T11:23:03.613Z,88.42
2018-11-25T11:25:31.605Z,88.06
2018-11-25T11:27:59.250Z,88.60
2018-11-25T11:30:26.975Z,88.08
2018-11-25T11:32:54.770Z,88.62
2018-11-25T11:35:22.486Z,88.06
2018-11-25T11:37:50.210Z,87.92
2018-11-25T11:40:17.895Z,88.23
2018-11-25T11:42:45.615Z,87.99
2018-11-25T11:45:14.661Z,88.00
2018-11-25T11:47:43.451Z,87.00
2018-11-25T11:50:13.820Z,87.57
2018-11-25T11:52:41.578Z,86.46
2018-11-25T11:55:10.895Z,87.70
2018-11-25T11:57:39.494Z,87.55
2018-11-25T12:00:28.241Z,87.38
2018-11-25T12:02:56.038Z,86.23
2018-11-25T12:05:28.406Z,85.79
2018-11-25T12:07:56.280Z,86.78
2018-11-25T12:10:23.945Z,86.50
2018-11-25T12:12:51.642Z,86.66
2018-11-25T12:15:29.932Z,87.02
2018-11-25T12:17:50.564Z,86.28
2018-11-25T12:20:21.308Z,86.24
2018-11-25T12:22:47.255Z,85.83
2018-11-25T12:25:16.343Z,86.72
2018-11-25T12:27:44.004Z,86.12
2018-11-25T12:30:13.273Z,86.60
2018-11-25T12:32:42.143Z,86.21
2018-11-25T12:35:11.232Z,85.21
2018-11-25T12:37:38.966Z,85.98
2018-11-25T12:40:13.951Z,86.33
2018-11-25T12:42:43.278Z,86.20
2018-11-25T12:45:13.070Z,86.34
2018-11-25T12:47:40.842Z,86.30
2018-11-25T12:50:11.561Z,85.99
2018-11-25T12:52:39.465Z,85.43
2018-11-25T12:55:10.499Z,85.45
2018-11-25T12:57:38.249Z,86.40
2018-11-25T13:00:24.978Z,85.45
2018-11-25T13:02:52.789Z,85.37
2018-11-25T13:05:20.537Z,85.26
2018-11-25T13:07:48.270Z,85.36
2018-11-25T13:10:19.674Z,85.33
2018-11-25T13:12:47.441Z,85.79
2018-11-25T13:15:15.142Z,85.41
2018-11-25T13:17:42.898Z,85.01
2018-11-25T13:20:14.043Z,83.38
2018-11-25T13:22:41.798Z,83.62
2018-11-25T13:25:12.265Z,84.59
2018-11-25T13:27:40.051Z,84.19
2018-11-25T13:30:12.967Z,84.76
2018-11-25T13:32:40.690Z,84.15
2018-11-25T13:35:09.434Z,84.39
2018-11-25T13:37:38.152Z,83.24
2018-11-25T13:40:09.758Z,84.28
2018-11-25T13:42:37.534Z,84.39
2018-11-25T13:45:03.871Z,84.81
2018-11-25T13:47:31.570Z,83.96
2018-11-25T13:49:59.374Z,84.85
2018-11-25T13:52:27.070Z,84.39
2018-11-25T13:54:54.786Z,84.25
2018-11-25T13:57:22.558Z,84.66
2018-11-25T13:59:50.250Z,84.89
2018-11-25T14:02:17.978Z,84.05
2018-11-25T14:04:45.662Z,82.87
2018-11-25T14:07:13.375Z,83.34
2018-11-25T14:09:41.013Z,83.23
2018-11-25T14:12:08.767Z,82.10
2018-11-25T14:14:36.460Z,81.84
2018-11-25T14:17:04.341Z,81.93
2018-11-25T14:19:32.642Z,81.90
2018-11-25T14:22:00.353Z,82.03
2018-11-25T14:24:28.042Z,82.18
2018-11-25T14:26:58.593Z,82.29
2018-11-25T14:29:26.866Z,81.49
2018-11-25T14:31:54.642Z,81.39
2018-11-25T14:34:22.294Z,80.66
2018-11-25T14:36:49.998Z,81.60
2018-11-25T14:39:17.686Z,81.28
2018-11-25T14:41:45.469Z,81.57
2018-11-25T14:44:13.152Z,81.31
2018-11-25T14:46:40.899Z,81.80
2018-11-25T14:49:08.668Z,82.13
2018-11-25T14:51:36.422Z,82.42
2018-11-25T14:54:04.439Z,81.92
2018-11-25T14:56:32.256Z,81.94
2018-11-25T14:58:59.990Z,82.33
2018-11-25T15:01:27.651Z,81.35
2018-11-25T15:03:56.623Z,82.50
2018-11-25T15:06:29.261Z,81.00
2018-11-25T15:08:52.323Z,82.64
2018-11-25T15:11:20.097Z,82.43
2018-11-25T15:13:47.810Z,82.69
2018-11-25T15:16:15.649Z,82.70
2018-11-25T15:18:43.445Z,83.29
2018-11-25T15:21:12.814Z,83.25
2018-11-25T15:23:40.991Z,83.06
2018-11-25T15:26:12.596Z,83.68
2018-11-25T15:28:40.314Z,83.45
2018-11-25T15:31:08.082Z,83.44
2018-11-25T15:33:36.258Z,84.11
2018-11-25T15:36:04.447Z,83.80
2018-11-25T15:38:32.165Z,84.27
2018-11-25T15:40:59.907Z,84.22
2018-11-25T15:43:27.678Z,85.00
2018-11-25T15:45:55.364Z,84.46
2018-11-25T15:48:26.948Z,84.82
2018-11-25T15:50:54.410Z,84.50
2018-11-25T15:53:22.117Z,84.64
2018-11-25T15:55:54.178Z,84.21
2018-11-25T15:58:21.851Z,84.39
2018-11-25T16:00:49.590Z,84.91
2018-11-25T16:03:17.329Z,85.07
2018-11-25T16:05:47.905Z,85.08
2018-11-25T16:08:15.621Z,85.00
2018-11-25T16:10:43.371Z,85.18
2018-11-25T16:13:11.017Z,85.61
2018-11-25T16:15:38.762Z,85.38
2018-11-25T16:18:06.846Z,85.58
2018-11-25T16:20:36.931Z,85.70
2018-11-25T16:23:07.825Z,85.94
2018-11-25T16:25:47.146Z,85.68
2018-11-25T16:28:20.544Z,85.87
2018-11-25T16:30:48.181Z,85.85
2018-11-25T16:33:15.899Z,85.77
2018-11-25T16:35:43.608Z,85.94
2018-11-25T16:38:11.307Z,86.35
2018-11-25T16:40:39.041Z,86.08
2018-11-25T16:43:06.873Z,86.31
2018-11-25T16:45:34.623Z,85.76
2018-11-25T16:48:02.299Z,86.21
2018-11-25T16:50:30.073Z,86.26
2018-11-25T16:52:57.793Z,86.13
2018-11-25T16:55:25.491Z,86.27
2018-11-25T16:57:53.267Z,85.97
2018-11-25T17:00:21.069Z,86.19
2018-11-25T17:02:48.749Z,86.45
2018-11-25T17:05:19.638Z,86.25
2018-11-25T17:07:51.813Z,86.31
2018-11-25T17:10:19.571Z,86.29
2018-11-25T17:12:47.278Z,86.46
2018-11-25T17:15:23.581Z,86.71
2018-11-25T17:17:51.330Z,87.00
2018-11-25T17:20:19.083Z,86.72
2018-11-25T17:22:46.838Z,87.24
2018-11-25T17:25:14.626Z,87.41
2018-11-25T17:27:42.729Z,87.37
2018-11-25T17:30:14.082Z,87.09
2018-11-25T17:32:42.514Z,87.13
2018-11-25T17:35:13.691Z,87.11
2018-11-25T17:37:41.426Z,86.67
2018-11-25T17:40:09.927Z,86.83
2018-11-25T17:42:38.106Z,87.15
2018-11-25T17:45:08.821Z,86.88
2018-11-25T17:47:36.498Z,86.41
2018-11-25T17:50:09.728Z,86.65
2018-11-25T17:52:37.360Z,87.00
2018-11-25T17:55:08.342Z,86.90
2018-11-25T17:57:36.110Z,86.74
2018-11-25T18:00:09.886Z,87.00
2018-11-25T18:02:37.678Z,86.34
2018-11-25T18:05:06.544Z,86.71
2018-11-25T18:07:34.530Z,86.45
2018-11-25T18:10:03.098Z,86.81
2018-11-25T18:12:30.832Z,86.74
2018-11-25T18:14:59.474Z,86.18
2018-11-25T18:17:27.985Z,86.51
2018-11-25T18:19:56.653Z,87.21
2018-11-25T18:22:28.051Z,87.36
2018-11-25T18:24:56.885Z,87.09
2018-11-25T18:27:25.302Z,86.64
2018-11-25T18:29:53.686Z,86.71
2018-11-25T18:32:22.817Z,86.88
2018-11-25T18:34:51.121Z,86.92
2018-11-25T18:37:19.631Z,86.87
2018-11-25T18:39:47.412Z,86.87
2018-11-25T18:42:15.289Z,86.92
2018-11-25T18:44:43.191Z,86.87
2018-11-25T18:47:11.110Z,87.06
2018-11-25T18:49:39.349Z,86.85
2018-11-25T18:52:07.770Z,87.18
2018-11-25T18:54:45.822Z,87.10
2018-11-25T18:57:13.538Z,86.87
2018-11-25T18:59:42.108Z,87.19
2018-11-25T19:02:15.349Z,87.30
2018-11-25T19:04:43.650Z,87.28
2018-11-25T19:07:12.288Z,86.95
2018-11-25T19:09:40.320Z,87.06
2018-11-25T19:12:08.094Z,86.86
2018-11-25T19:14:36.546Z,87.24
2018-11-25T19:17:05.034Z,86.97
2018-11-25T19:19:33.929Z,87.08
2018-11-25T19:22:02.260Z,87.55
2018-11-25T19:24:30.757Z,87.43
2018-11-25T19:26:58.729Z,87.44
2018-11-25T19:29:27.167Z,87.21
2018-11-25T19:31:55.754Z,87.51
2018-11-25T19:34:23.850Z,87.91
2018-11-25T19:36:51.901Z,87.89
2018-11-25T19:39:19.748Z,87.99
2018-11-25T19:41:47.764Z,87.75
2018-11-25T19:44:16.159Z,87.75
2018-11-25T19:46:44.931Z,87.73
2018-11-25T19:49:12.679Z,87.77
2018-11-25T19:51:41.080Z,87.77
2018-11-25T19:54:09.873Z,88.32
2018-11-25T19:56:41.514Z,87.81
2018-11-25T19:59:10.359Z,88.41
2018-11-25T20:01:38.129Z,88.67
2018-11-25T20:04:06.435Z,88.42
2018-11-25T20:06:35.440Z,88.56
2018-11-25T20:09:04.891Z,88.95
2018-11-25T20:11:33.055Z,88.84
2018-11-25T20:14:01.531Z,88.63
2018-11-25T20:16:35.363Z,88.58
2018-11-25T20:19:03.948Z,88.54
2018-11-25T20:21:37.794Z,88.56
2018-11-25T20:24:05.602Z,88.90
2018-11-25T20:29:30.102Z,88.95
2018-11-25T20:32:03.525Z,88.95
2018-11-25T20:34:31.306Z,89.10
2018-11-25T20:36:59.041Z,89.50
2018-11-25T20:39:31.550Z,89.17
2018-11-25T20:41:59.273Z,88.75
2018-11-25T20:44:27.042Z,89.31
2018-11-25T20:47:00.307Z,88.89
2018-11-25T20:49:28.109Z,88.94
2018-11-25T20:52:01.476Z,88.68
2018-11-25T20:54:29.114Z,89.36
2018-11-25T20:56:56.862Z,88.85
2018-11-25T20:59:24.582Z,88.44
2018-11-25T21:01:56.342Z,88.35
2018-11-25T21:04:26.637Z,88.36
2018-11-25T21:06:54.496Z,89.10
2018-11-25T21:09:22.158Z,89.66
2018-11-25T21:11:49.886Z,88.84
2018-11-25T21:14:17.602Z,88.36
2018-11-25T21:16:45.318Z,89.31
2018-11-25T21:19:13.240Z,89.31
2018-11-25T21:21:40.944Z,89.22
2018-11-25T21:24:08.631Z,88.83
2018-11-25T21:26:36.554Z,88.73
2018-11-25T21:29:04.745Z,89.54
2018-11-25T21:31:32.487Z,89.36
2018-11-25T21:34:00.166Z,89.00
2018-11-25T21:36:27.842Z,89.07
2018-11-25T21:38:55.554Z,89.42
2018-11-25T21:41:23.366Z,89.04
2018-11-25T21:43:51.243Z,89.53
2018-11-25T21:46:18.968Z,89.95
2018-11-25T21:48:46.674Z,89.67
2018-11-25T21:51:14.439Z,89.79
2018-11-25T21:53:42.230Z,90.46
2018-11-25T21:56:14.279Z,90.96
2018-11-25T21:58:37.842Z,90.41
2018-11-25T22:01:07.142Z,90.37
2018-11-25T22:03:34.886Z,90.17
2018-11-25T22:06:02.716Z,90.26
2018-11-25T22:08:30.374Z,90.75
2018-11-25T22:10:58.092Z,90.20
2018-11-25T22:13:25.793Z,89.64
2018-11-25T22:15:53.517Z,89.57
2018-11-25T22:18:21.338Z,89.90
2018-11-25T22:20:49.075Z,90.03
2018-11-25T22:23:16.873Z,90.67
2018-11-25T22:25:44.983Z,89.77
2018-11-25T22:28:12.710Z,89.81
2018-11-25T22:30:40.459Z,90.08
2018-11-25T22:33:08.186Z,89.93
2018-11-25T22:35:36.014Z,89.72
2018-11-25T22:38:03.774Z,89.61
2018-11-25T22:40:31.517Z,89.71
2018-11-25T22:42:59.242Z,89.69
2018-11-25T22:45:26.962Z,89.74
2018-11-25T22:47:54.688Z,90.26
2018-11-25T22:50:25.536Z,90.34
2018-11-25T22:52:50.279Z,90.13
2018-11-25T22:55:19.966Z,90.19
2018-11-25T22:57:47.853Z,90.32
2018-11-25T23:00:27.069Z,90.24
2018-11-25T23:02:54.724Z,90.70
2018-11-25T23:06:07.990Z,90.63
2018-11-25T23:08:35.727Z,90.78
2018-11-25T23:11:05.619Z,90.14
2018-11-25T23:13:33.338Z,90.56
2018-11-25T23:16:00.978Z,90.40
2018-11-25T23:18:28.674Z,90.40
2018-11-25T23:20:56.393Z,90.90
2018-11-25T23:23:24.201Z,90.22
2018-11-25T23:25:52.013Z,90.25
2018-11-25T23:28:19.746Z,90.79
2018-11-25T23:30:47.434Z,90.46
2018-11-25T23:33:15.141Z,90.77
2018-11-25T23:35:46.802Z,90.61
2018-11-25T23:38:14.573Z,90.71
2018-11-25T23:40:42.290Z,90.77
2018-11-25T23:43:10.039Z,90.42
2018-11-25T23:45:37.794Z,90.39
2018-11-25T23:48:05.830Z,89.87
2018-11-25T23:50:33.554Z,90.09
2018-11-25T23:53:01.317Z,89.85
2018-11-25T23:55:29.061Z,89.71
2018-11-25T23:57:56.824Z,90.06
